createdAt,value
2019-04-04T00:00:16.986Z,20.00
2019-04-04T00:01:17.451Z,20.00
2019-04-04T00:02:18.837Z,20.00
2019-04-04T00:03:16.952Z,20.00
2019-04-04T00:04:16.946Z,20.00
2019-04-04T00:05:16.933Z,20.00
2019-04-04T00:06:16.926Z,20.00
2019-04-04T00:07:16.928Z,20.00
2019-04-04T00:08:16.901Z,20.00
2019-04-04T00:09:16.894Z,20.00
2019-04-04T00:10:16.886Z,20.00
2019-04-04T00:11:16.869Z,20.00
2019-04-04T00:12:16.855Z,20.00
2019-04-04T00:13:16.871Z,20.00
2019-04-04T00:14:16.831Z,20.00
2019-04-04T00:15:16.825Z,20.00
2019-04-04T00:16:16.837Z,16.00
2019-04-04T00:17:16.819Z,16.00
2019-04-04T00:18:28.945Z,16.00
2019-04-04T00:19:16.785Z,16.00
2019-04-04T00:20:16.779Z,16.00
2019-04-04T00:21:17.433Z,16.00
2019-04-04T00:22:16.748Z,16.00
2019-04-04T00:23:16.755Z,16.00
2019-04-04T00:24:16.770Z,16.00
2019-04-04T00:25:16.745Z,16.00
2019-04-04T00:26:16.705Z,16.00
2019-04-04T00:27:16.695Z,16.00
2019-04-04T00:28:17.429Z,16.00
2019-04-04T00:29:17.249Z,16.00
2019-04-04T00:30:17.995Z,16.00
2019-04-04T00:31:18.851Z,16.00
2019-04-04T00:32:16.640Z,16.00
2019-04-04T00:33:16.630Z,16.00
2019-04-04T00:34:16.624Z,16.00
2019-04-04T00:35:16.684Z,16.00
2019-04-04T00:36:16.645Z,16.00
2019-04-04T00:37:16.585Z,16.00
2019-04-04T00:38:16.577Z,16.00
2019-04-04T00:39:16.563Z,16.00
2019-04-04T00:40:16.562Z,16.00
2019-04-04T00:41:16.543Z,16.00
2019-04-04T00:42:16.977Z,16.00
2019-04-04T00:43:16.530Z,16.00
2019-04-04T00:44:16.515Z,16.00
2019-04-04T00:45:16.498Z,16.00
2019-04-04T00:46:16.522Z,16.00
2019-04-04T00:47:16.627Z,16.00
2019-04-04T00:48:16.470Z,16.00
2019-04-04T00:49:29.135Z,16.00
2019-04-04T00:50:16.448Z,16.00
2019-04-04T00:51:16.436Z,16.00
2019-04-04T00:52:16.431Z,16.00
2019-04-04T00:53:16.458Z,16.00
2019-04-04T00:54:16.403Z,16.00
2019-04-04T00:55:16.467Z,16.00
2019-04-04T00:56:18.059Z,16.00
2019-04-04T00:57:17.256Z,16.00
2019-04-04T00:58:16.369Z,16.00
2019-04-04T00:59:16.393Z,16.00
2019-04-04T01:00:16.338Z,16.00
2019-04-04T01:01:16.658Z,16.00
2019-04-04T01:02:16.319Z,16.00
2019-04-04T01:03:16.306Z,16.00
2019-04-04T01:04:16.299Z,16.00
2019-04-04T01:05:16.296Z,16.00
2019-04-04T01:06:16.276Z,16.00
2019-04-04T01:07:16.262Z,16.00
2019-04-04T01:08:16.255Z,16.00
2019-04-04T01:09:16.263Z,16.00
2019-04-04T01:10:18.807Z,16.00
2019-04-04T01:11:16.226Z,16.00
2019-04-04T01:12:16.209Z,16.00
2019-04-04T01:13:16.198Z,16.00
2019-04-04T01:14:16.230Z,16.00
2019-04-04T01:15:16.184Z,16.00
2019-04-04T01:16:16.170Z,16.00
2019-04-04T01:17:16.154Z,16.00
2019-04-04T01:18:16.142Z,16.00
2019-04-04T01:19:16.139Z,20.00
2019-04-04T01:20:28.994Z,16.00
2019-04-04T01:21:16.114Z,20.00
2019-04-04T01:22:16.101Z,20.00
2019-04-04T01:23:16.096Z,20.00
2019-04-04T01:24:16.082Z,20.00
2019-04-04T01:25:16.077Z,16.00
2019-04-04T01:26:16.077Z,20.00
2019-04-04T01:27:16.045Z,16.00
2019-04-04T01:28:16.035Z,16.00
2019-04-04T01:29:16.029Z,16.00
2019-04-04T01:30:16.017Z,20.00
2019-04-04T01:31:16.007Z,20.00
2019-04-04T01:32:17.076Z,20.00
2019-04-04T01:33:15.985Z,20.00
2019-04-04T01:34:15.975Z,20.00
2019-04-04T01:35:15.971Z,20.00
2019-04-04T01:36:15.955Z,20.00
2019-04-04T01:37:15.983Z,20.00
2019-04-04T01:38:15.926Z,20.00
2019-04-04T01:39:15.923Z,20.00
2019-04-04T01:40:15.918Z,16.00
2019-04-04T01:41:15.898Z,16.00
2019-04-04T01:42:15.892Z,16.00
2019-04-04T01:43:15.908Z,16.00
2019-04-04T01:44:15.864Z,16.00
2019-04-04T01:45:15.859Z,16.00
2019-04-04T01:46:15.853Z,16.00
2019-04-04T01:47:17.063Z,16.00
2019-04-04T01:48:18.432Z,20.00
2019-04-04T01:49:15.852Z,16.00
2019-04-04T01:50:15.797Z,16.00
2019-04-04T01:51:28.540Z,16.00
2019-04-04T01:52:15.779Z,16.00
2019-04-04T01:53:15.764Z,16.00
2019-04-04T01:54:15.762Z,16.00
2019-04-04T01:55:15.759Z,16.00
2019-04-04T01:56:15.737Z,16.00
2019-04-04T01:57:15.720Z,16.00
2019-04-04T01:58:15.714Z,16.00
2019-04-04T01:59:15.748Z,16.00
2019-04-04T02:00:15.846Z,16.00
2019-04-04T02:01:16.602Z,16.00
2019-04-04T02:02:17.790Z,16.00
2019-04-04T02:03:15.663Z,16.00
2019-04-04T02:04:15.656Z,16.00
2019-04-04T02:05:15.684Z,16.00
2019-04-04T02:06:15.631Z,16.00
2019-04-04T02:07:15.620Z,16.00
2019-04-04T02:08:15.606Z,16.00
2019-04-04T02:09:15.597Z,16.00
2019-04-04T02:10:15.587Z,16.00
2019-04-04T02:11:15.611Z,16.00
2019-04-04T02:12:15.564Z,16.00
2019-04-04T02:13:15.547Z,16.00
2019-04-04T02:14:15.537Z,16.00
2019-04-04T02:15:15.534Z,16.00
2019-04-04T02:16:17.079Z,16.00
2019-04-04T02:17:15.513Z,16.00
2019-04-04T02:18:15.543Z,16.00
2019-04-04T02:19:15.486Z,16.00
2019-04-04T02:20:15.481Z,16.00
2019-04-04T02:21:15.470Z,16.00
2019-04-04T02:22:30.630Z,20.00
2019-04-04T02:23:15.445Z,16.00
2019-04-04T02:24:15.477Z,20.00
2019-04-04T02:25:15.425Z,20.00
2019-04-04T02:26:15.421Z,20.00
2019-04-04T02:27:15.405Z,20.00
2019-04-04T02:28:15.387Z,20.00
2019-04-04T02:29:15.381Z,20.00
2019-04-04T02:30:16.461Z,20.00
2019-04-04T02:31:16.012Z,20.00
2019-04-04T02:32:15.364Z,20.00
2019-04-04T02:33:15.340Z,20.00
2019-04-04T02:34:15.329Z,16.00
2019-04-04T02:35:15.322Z,20.00
2019-04-04T02:36:16.718Z,20.00
2019-04-04T02:37:15.318Z,20.00
2019-04-04T02:38:15.292Z,20.00
2019-04-04T02:39:15.297Z,24.00
2019-04-04T02:40:15.267Z,20.00
2019-04-04T02:41:16.195Z,20.00
2019-04-04T02:42:15.258Z,24.00
2019-04-04T02:43:15.236Z,20.00
2019-04-04T02:44:15.234Z,24.00
2019-04-04T02:45:16.012Z,24.00
2019-04-04T02:46:16.013Z,28.00
2019-04-04T02:47:17.438Z,28.00
2019-04-04T02:48:15.254Z,28.00
2019-04-04T02:49:15.240Z,28.00
2019-04-04T02:50:15.190Z,28.00
2019-04-04T02:51:15.218Z,32.00
2019-04-04T02:52:15.171Z,32.00
2019-04-04T02:53:27.546Z,36.00
2019-04-04T02:54:15.112Z,40.00
2019-04-04T02:55:15.106Z,40.00
2019-04-04T02:56:15.089Z,44.00
2019-04-04T02:57:15.088Z,44.00
2019-04-04T02:58:15.466Z,48.00
2019-04-04T02:59:20.270Z,56.00
2019-04-04T03:00:16.062Z,56.00
2019-04-04T03:01:15.036Z,60.00
2019-04-04T03:02:15.023Z,68.00
2019-04-04T03:03:15.015Z,76.00
2019-04-04T03:04:15.011Z,84.00
2019-04-04T03:05:18.800Z,92.00
2019-04-04T03:06:14.984Z,100.00
2019-04-04T03:07:14.968Z,112.00
2019-04-04T03:08:14.961Z,124.00
2019-04-04T03:09:14.949Z,136.00
2019-04-04T03:10:16.347Z,148.00
2019-04-04T03:11:14.941Z,160.00
2019-04-04T03:12:14.918Z,180.00
2019-04-04T03:13:14.910Z,200.00
2019-04-04T03:14:14.899Z,216.00
2019-04-04T03:15:14.904Z,240.00
2019-04-04T03:16:14.913Z,260.00
2019-04-04T03:17:14.860Z,284.00
2019-04-04T03:18:14.858Z,312.00
2019-04-04T03:19:14.856Z,336.00
2019-04-04T03:20:17.185Z,364.00
2019-04-04T03:21:14.819Z,396.00
2019-04-04T03:22:14.821Z,428.00
2019-04-04T03:23:14.804Z,444.00
2019-04-04T03:24:26.729Z,480.00
2019-04-04T03:25:15.702Z,520.00
2019-04-04T03:26:18.989Z,560.00
2019-04-04T03:27:15.763Z,600.00
2019-04-04T03:28:14.747Z,644.00
2019-04-04T03:29:14.741Z,696.00
2019-04-04T03:30:17.151Z,740.00
2019-04-04T03:31:14.716Z,796.00
2019-04-04T03:32:16.750Z,848.00
2019-04-04T03:33:14.692Z,904.00
2019-04-04T03:34:14.704Z,964.00
2019-04-04T03:35:14.666Z,1028.00
2019-04-04T03:36:14.666Z,1084.00
2019-04-04T03:37:14.646Z,1152.00
2019-04-04T03:38:14.677Z,1220.00
2019-04-04T03:39:19.107Z,1288.00
2019-04-04T03:40:15.624Z,1360.00
2019-04-04T03:41:14.606Z,1432.00
2019-04-04T03:42:14.597Z,1508.00
2019-04-04T03:43:16.194Z,1584.00
2019-04-04T03:44:14.578Z,1668.00
2019-04-04T03:45:14.568Z,1740.00
2019-04-04T03:46:14.551Z,1824.00
2019-04-04T03:47:14.542Z,1908.00
2019-04-04T03:48:17.474Z,1992.00
2019-04-04T03:49:14.527Z,2080.00
2019-04-04T03:50:14.510Z,2164.00
2019-04-04T03:51:14.501Z,2244.00
2019-04-04T03:52:14.504Z,2336.00
2019-04-04T03:53:17.305Z,2424.00
2019-04-04T03:54:14.491Z,2516.00
2019-04-04T03:55:28.020Z,2604.00
2019-04-04T03:56:14.455Z,2696.00
2019-04-04T03:57:14.436Z,2788.00
2019-04-04T03:58:14.424Z,2880.00
2019-04-04T03:59:14.415Z,2976.00
2019-04-04T04:00:14.446Z,3068.00
2019-04-04T04:01:14.387Z,3168.00
2019-04-04T04:02:17.854Z,3260.00
2019-04-04T04:03:14.370Z,3352.00
2019-04-04T04:04:14.360Z,3448.00
2019-04-04T04:05:14.789Z,3544.00
2019-04-04T04:06:14.376Z,3640.00
2019-04-04T04:07:15.368Z,3736.00
2019-04-04T04:08:14.319Z,3832.00
2019-04-04T04:09:14.311Z,3928.00
2019-04-04T04:10:14.288Z,4024.00
2019-04-04T04:11:14.283Z,4116.00
2019-04-04T04:12:14.331Z,4212.00
2019-04-04T04:13:17.291Z,4308.00
2019-04-04T04:14:14.247Z,4404.00
2019-04-04T04:15:14.231Z,4500.00
2019-04-04T04:16:14.219Z,4592.00
2019-04-04T04:17:14.214Z,4688.00
2019-04-04T04:18:14.248Z,4784.00
2019-04-04T04:19:14.193Z,4880.00
2019-04-04T04:20:14.180Z,4972.00
2019-04-04T04:21:14.186Z,5068.00
2019-04-04T04:22:18.152Z,5160.00
2019-04-04T04:23:15.607Z,5252.00
2019-04-04T04:24:14.133Z,5340.00
2019-04-04T04:25:14.122Z,5428.00
2019-04-04T04:26:26.546Z,5516.00
2019-04-04T04:27:15.487Z,5600.00
2019-04-04T04:28:14.092Z,5696.00
2019-04-04T04:29:14.101Z,5768.00
2019-04-04T04:30:14.072Z,5852.00
2019-04-04T04:31:15.335Z,5940.00
2019-04-04T04:32:14.048Z,6012.00
2019-04-04T04:33:14.036Z,6096.00
2019-04-04T04:34:14.060Z,6176.00
2019-04-04T04:35:14.011Z,6256.00
2019-04-04T04:36:15.637Z,6332.00
2019-04-04T04:37:13.993Z,6416.00
2019-04-04T04:38:13.986Z,6492.00
2019-04-04T04:39:13.976Z,6568.00
2019-04-04T04:40:15.271Z,6644.00
2019-04-04T04:41:13.943Z,6720.00
2019-04-04T04:42:13.935Z,6808.00
2019-04-04T04:43:15.807Z,6896.00
2019-04-04T04:44:13.915Z,7076.00
2019-04-04T04:45:13.913Z,7296.00
2019-04-04T04:46:16.839Z,8364.00
2019-04-04T04:47:13.884Z,10860.00
2019-04-04T04:48:13.887Z,11296.00
2019-04-04T04:49:13.861Z,10572.00
2019-04-04T04:50:13.849Z,10560.00
2019-04-04T04:51:13.989Z,10696.00
2019-04-04T04:52:15.147Z,10968.00
2019-04-04T04:53:13.815Z,11148.00
2019-04-04T04:54:13.808Z,11208.00
2019-04-04T04:55:13.799Z,10952.00
2019-04-04T04:56:13.783Z,10804.00
2019-04-04T04:57:29.755Z,10812.00
2019-04-04T04:58:13.806Z,10908.00
2019-04-04T04:59:13.946Z,11124.00
2019-04-04T05:00:14.029Z,11728.00
2019-04-04T05:01:13.725Z,12860.00
2019-04-04T05:02:13.719Z,13604.00
2019-04-04T05:03:13.757Z,14720.00
2019-04-04T05:04:13.729Z,20096.00
2019-04-04T05:05:13.694Z,26624.00
2019-04-04T05:06:13.669Z,26624.00
2019-04-04T05:07:13.661Z,20960.00
2019-04-04T05:08:13.652Z,18688.00
2019-04-04T05:09:13.983Z,19904.00
2019-04-04T05:10:15.064Z,19552.00
2019-04-04T05:11:14.635Z,20480.00
2019-04-04T05:12:13.608Z,17952.00
2019-04-04T05:13:13.593Z,16064.00
2019-04-04T05:14:13.593Z,15776.00
2019-04-04T05:15:13.626Z,15040.00
2019-04-04T05:16:13.564Z,16096.00
2019-04-04T05:17:13.550Z,16256.00
2019-04-04T05:18:14.098Z,15552.00
2019-04-04T05:19:13.558Z,14464.00
2019-04-04T05:20:13.532Z,13612.00
2019-04-04T05:21:24.450Z,13880.00
2019-04-04T05:22:14.490Z,14912.00
2019-04-04T05:23:15.625Z,16224.00
2019-04-04T05:24:13.481Z,15232.00
2019-04-04T05:25:13.474Z,14136.00
2019-04-04T05:26:13.450Z,14412.00
2019-04-04T05:27:13.449Z,14528.00
2019-04-04T05:28:25.123Z,13580.00
2019-04-04T05:29:14.123Z,13540.00
2019-04-04T05:30:15.944Z,14656.00
2019-04-04T05:31:13.458Z,14156.00
2019-04-04T05:32:13.385Z,14232.00
2019-04-04T05:33:13.381Z,14068.00
2019-04-04T05:34:13.360Z,13864.00
2019-04-04T05:35:15.141Z,13240.00
2019-04-04T05:36:13.347Z,13728.00
2019-04-04T05:37:13.339Z,14100.00
2019-04-04T05:38:13.346Z,13604.00
2019-04-04T05:39:13.314Z,13112.00
2019-04-04T05:40:13.309Z,12232.00
2019-04-04T05:41:16.208Z,12112.00
2019-04-04T05:42:13.336Z,12468.00
2019-04-04T05:43:14.986Z,12628.00
2019-04-04T05:44:13.257Z,12624.00
2019-04-04T05:45:14.434Z,13440.00
2019-04-04T05:46:13.249Z,14012.00
2019-04-04T05:47:13.211Z,13916.00
2019-04-04T05:48:13.230Z,13592.00
2019-04-04T05:49:13.193Z,15104.00
2019-04-04T05:50:16.195Z,16736.00
2019-04-04T05:51:15.253Z,16096.00
2019-04-04T05:52:13.168Z,15648.00
2019-04-04T05:53:13.242Z,17824.00
2019-04-04T05:54:13.234Z,17216.00
2019-04-04T05:55:13.179Z,16992.00
2019-04-04T05:56:15.159Z,19040.00
2019-04-04T05:57:13.114Z,19616.00
2019-04-04T05:58:13.137Z,20160.00
2019-04-04T05:59:25.698Z,21984.00
2019-04-04T06:00:13.099Z,23552.00
2019-04-04T06:01:13.081Z,25408.00
2019-04-04T06:02:13.076Z,24000.00
2019-04-04T06:03:15.278Z,18656.00
2019-04-04T06:04:13.040Z,16544.00
2019-04-04T06:05:13.076Z,15264.00
2019-04-04T06:06:13.003Z,14092.00
2019-04-04T06:07:16.182Z,13276.00
2019-04-04T06:08:12.997Z,13240.00
2019-04-04T06:09:14.686Z,13240.00
2019-04-04T06:10:12.951Z,13120.00
2019-04-04T06:11:12.954Z,13332.00
2019-04-04T06:12:12.939Z,12716.00
2019-04-04T06:13:12.924Z,11748.00
2019-04-04T06:14:12.911Z,11168.00
2019-04-04T06:15:13.663Z,10772.00
2019-04-04T06:16:12.899Z,10560.00
2019-04-04T06:17:13.408Z,10456.00
2019-04-04T06:18:12.862Z,10432.00
2019-04-04T06:19:14.766Z,10420.00
2019-04-04T06:20:14.729Z,10320.00
2019-04-04T06:21:12.832Z,10252.00
2019-04-04T06:22:12.861Z,10180.00
2019-04-04T06:23:12.822Z,10120.00
2019-04-04T06:24:12.802Z,10080.00
2019-04-04T06:25:12.785Z,10076.00
2019-04-04T06:26:12.788Z,10064.00
2019-04-04T06:27:12.767Z,10036.00
2019-04-04T06:28:12.846Z,10020.00
2019-04-04T06:29:12.756Z,9804.00
2019-04-04T06:30:25.329Z,9892.00
2019-04-04T06:31:12.781Z,9700.00
2019-04-04T06:32:12.726Z,9464.00
2019-04-04T06:33:12.713Z,9304.00
2019-04-04T06:34:12.708Z,9348.00
2019-04-04T06:35:13.331Z,9516.00
2019-04-04T06:36:12.671Z,9616.00
2019-04-04T06:37:12.658Z,9540.00
2019-04-04T06:38:12.641Z,9488.00
2019-04-04T06:39:12.665Z,9532.00
2019-04-04T06:40:12.621Z,9556.00
2019-04-04T06:41:12.620Z,9584.00
2019-04-04T06:42:12.601Z,9588.00
2019-04-04T06:43:12.590Z,9592.00
2019-04-04T06:44:13.111Z,9656.00
2019-04-04T06:45:15.164Z,9672.00
2019-04-04T06:46:12.563Z,9688.00
2019-04-04T06:47:12.546Z,9724.00
2019-04-04T06:48:12.543Z,9732.00
2019-04-04T06:49:12.516Z,9740.00
2019-04-04T06:50:12.517Z,9764.00
2019-04-04T06:51:14.247Z,9796.00
2019-04-04T06:52:12.711Z,9816.00
2019-04-04T06:53:12.477Z,9820.00
2019-04-04T06:54:12.478Z,9844.00
2019-04-04T06:55:12.458Z,9820.00
2019-04-04T06:56:12.442Z,10152.00
2019-04-04T06:57:12.449Z,10200.00
2019-04-04T06:58:12.518Z,10156.00
2019-04-04T06:59:12.634Z,10216.00
2019-04-04T07:01:40.195Z,9916.00
2019-04-04T07:02:39.611Z,9944.00
2019-04-04T07:03:39.657Z,9964.00
2019-04-04T07:04:39.588Z,9944.00
2019-04-04T07:05:39.576Z,9924.00
2019-04-04T07:06:41.656Z,9928.00
2019-04-04T07:07:43.098Z,9940.00
2019-04-04T07:08:39.553Z,10144.00
2019-04-04T07:09:39.590Z,10340.00
2019-04-04T07:10:39.526Z,10356.00
2019-04-04T07:11:39.511Z,10344.00
2019-04-04T07:12:39.501Z,10012.00
2019-04-04T07:13:42.514Z,10044.00
2019-04-04T07:14:45.447Z,10084.00
2019-04-04T07:15:46.724Z,10108.00
2019-04-04T07:16:40.474Z,10116.00
2019-04-04T07:17:40.490Z,10128.00
2019-04-04T07:18:40.969Z,10156.00
2019-04-04T07:19:39.465Z,10180.00
2019-04-04T07:20:39.418Z,10196.00
2019-04-04T07:21:39.402Z,10204.00
2019-04-04T07:22:39.403Z,10212.00
2019-04-04T07:23:41.853Z,10212.00
2019-04-04T07:24:39.466Z,10224.00
2019-04-04T07:25:39.872Z,10236.00
2019-04-04T07:26:39.352Z,10244.00
2019-04-04T07:27:39.337Z,10264.00
2019-04-04T07:28:39.350Z,10268.00
2019-04-04T07:29:39.324Z,10280.00
2019-04-04T07:30:39.309Z,10300.00
2019-04-04T07:31:46.366Z,10308.00
2019-04-04T07:32:41.617Z,10316.00
2019-04-04T07:33:42.656Z,10332.00
2019-04-04T07:34:39.263Z,10340.00
2019-04-04T07:35:39.250Z,10344.00
2019-04-04T07:36:39.288Z,10348.00
2019-04-04T07:37:39.242Z,10364.00
2019-04-04T07:38:39.217Z,10384.00
2019-04-04T07:39:39.204Z,10384.00
2019-04-04T07:40:39.205Z,10388.00
2019-04-04T07:41:40.746Z,10404.00
2019-04-04T07:42:40.358Z,10428.00
2019-04-04T07:43:39.472Z,10424.00
2019-04-04T07:44:39.151Z,10452.00
2019-04-04T07:45:39.145Z,10448.00
2019-04-04T07:46:41.255Z,10468.00
2019-04-04T07:47:39.120Z,10488.00
2019-04-04T07:48:39.135Z,10484.00
2019-04-04T07:49:40.355Z,10508.00
2019-04-04T07:50:39.089Z,10512.00
2019-04-04T07:51:39.106Z,10520.00
2019-04-04T07:52:39.102Z,10528.00
2019-04-04T07:53:39.055Z,10552.00
2019-04-04T07:54:39.235Z,10556.00
2019-04-04T07:55:40.087Z,10552.00
2019-04-04T07:56:39.045Z,10576.00
2019-04-04T07:57:39.015Z,10584.00
2019-04-04T07:58:39.001Z,10592.00
2019-04-04T07:59:39.156Z,10612.00
2019-04-04T08:00:38.986Z,10624.00
2019-04-04T08:01:50.682Z,10644.00
2019-04-04T08:02:52.367Z,10656.00
2019-04-04T08:03:38.946Z,10656.00
2019-04-04T08:04:38.999Z,10664.00
2019-04-04T08:05:38.958Z,10668.00
2019-04-04T08:06:38.956Z,10672.00
2019-04-04T08:07:38.898Z,10664.00
2019-04-04T08:08:38.892Z,10708.00
2019-04-04T08:09:38.882Z,10720.00
2019-04-04T08:10:38.875Z,10720.00
2019-04-04T08:11:38.866Z,10740.00
2019-04-04T08:12:38.844Z,10748.00
2019-04-04T08:13:38.840Z,10752.00
2019-04-04T08:14:38.821Z,10744.00
2019-04-04T08:15:38.816Z,10776.00
2019-04-04T08:16:38.845Z,10780.00
2019-04-04T08:17:38.807Z,10784.00
2019-04-04T08:18:38.865Z,10796.00
2019-04-04T08:19:38.776Z,10804.00
2019-04-04T08:20:38.753Z,10808.00
2019-04-04T08:21:38.743Z,10812.00
2019-04-04T08:22:39.792Z,10820.00
2019-04-04T08:23:38.727Z,10828.00
2019-04-04T08:24:38.716Z,10840.00
2019-04-04T08:25:38.716Z,10844.00
2019-04-04T08:26:38.698Z,10844.00
2019-04-04T08:27:38.678Z,10852.00
2019-04-04T08:28:38.710Z,10848.00
2019-04-04T08:29:38.663Z,10856.00
2019-04-04T08:30:38.801Z,10868.00
2019-04-04T08:31:38.674Z,10868.00
2019-04-04T08:32:38.624Z,10872.00
2019-04-04T08:33:52.451Z,10860.00
2019-04-04T08:34:39.397Z,10864.00
2019-04-04T08:35:38.596Z,10876.00
2019-04-04T08:36:38.581Z,10880.00
2019-04-04T08:37:38.761Z,10872.00
2019-04-04T08:38:38.579Z,10860.00
2019-04-04T08:39:38.781Z,10872.00
2019-04-04T08:40:38.766Z,10812.00
2019-04-04T08:41:38.523Z,10536.00
2019-04-04T08:42:38.613Z,10884.00
2019-04-04T08:43:46.993Z,10888.00
2019-04-04T08:44:38.484Z,10884.00
2019-04-04T08:45:38.496Z,10876.00
2019-04-04T08:46:38.465Z,10860.00
2019-04-04T08:47:38.458Z,10860.00
2019-04-04T08:48:38.445Z,10876.00
2019-04-04T08:49:38.439Z,10864.00
2019-04-04T08:50:38.455Z,10868.00
2019-04-04T08:51:38.479Z,10864.00
2019-04-04T08:52:38.398Z,10864.00
2019-04-04T08:53:40.249Z,10864.00
2019-04-04T08:54:38.375Z,10876.00
2019-04-04T08:55:38.370Z,10872.00
2019-04-04T08:56:38.364Z,10868.00
2019-04-04T08:57:38.389Z,10860.00
2019-04-04T08:58:38.329Z,10860.00
2019-04-04T08:59:38.350Z,10864.00
2019-04-04T09:00:38.316Z,10804.00
2019-04-04T09:01:38.337Z,10848.00
2019-04-04T09:02:38.309Z,10832.00
2019-04-04T09:03:38.388Z,10840.00
2019-04-04T09:04:38.472Z,10844.00
2019-04-04T09:05:38.256Z,10852.00
2019-04-04T09:06:38.246Z,10848.00
2019-04-04T09:07:38.313Z,10840.00
2019-04-04T09:08:38.220Z,10832.00
2019-04-04T09:09:38.351Z,10832.00
2019-04-04T09:10:38.199Z,10836.00
2019-04-04T09:11:38.195Z,10836.00
2019-04-04T09:12:38.177Z,10836.00
2019-04-04T09:13:38.191Z,10828.00
2019-04-04T09:14:51.368Z,10840.00
2019-04-04T09:15:38.143Z,10824.00
2019-04-04T09:16:38.132Z,10820.00
2019-04-04T09:17:38.120Z,10816.00
2019-04-04T09:18:38.162Z,10812.00
2019-04-04T09:19:38.143Z,10812.00
2019-04-04T09:20:38.091Z,10808.00
2019-04-04T09:21:38.078Z,10812.00
2019-04-04T09:22:40.916Z,10800.00
2019-04-04T09:23:38.076Z,10788.00
2019-04-04T09:24:38.092Z,10772.00
2019-04-04T09:25:40.700Z,10748.00
2019-04-04T09:26:38.033Z,10724.00
2019-04-04T09:27:38.011Z,10688.00
2019-04-04T09:28:38.002Z,10700.00
2019-04-04T09:29:37.997Z,10732.00
2019-04-04T09:30:38.489Z,10756.00
2019-04-04T09:31:37.963Z,10752.00
2019-04-04T09:32:37.954Z,10740.00
2019-04-04T09:33:37.941Z,10740.00
2019-04-04T09:34:37.973Z,10744.00
2019-04-04T09:35:37.934Z,10752.00
2019-04-04T09:36:37.974Z,10728.00
2019-04-04T09:37:37.947Z,10744.00
2019-04-04T09:38:37.904Z,10748.00
2019-04-04T09:39:37.882Z,10732.00
2019-04-04T09:40:37.860Z,10720.00
2019-04-04T09:41:37.850Z,10724.00
2019-04-04T09:42:37.901Z,10724.00
2019-04-04T09:43:37.839Z,10720.00
2019-04-04T09:44:37.820Z,10704.00
2019-04-04T09:45:50.780Z,10700.00
2019-04-04T09:46:37.794Z,10688.00
2019-04-04T09:47:37.784Z,10692.00
2019-04-04T09:48:37.784Z,10672.00
2019-04-04T09:49:37.780Z,10684.00
2019-04-04T09:50:37.761Z,10656.00
2019-04-04T09:51:37.743Z,10656.00
2019-04-04T09:52:37.775Z,10656.00
2019-04-04T09:53:52.411Z,10640.00
2019-04-04T09:54:38.712Z,10620.00
2019-04-04T09:55:37.700Z,10612.00
2019-04-04T09:56:37.711Z,10620.00
2019-04-04T09:57:37.680Z,10604.00
2019-04-04T09:58:37.714Z,10604.00
2019-04-04T09:59:37.688Z,11188.00
2019-04-04T10:00:37.656Z,11100.00
2019-04-04T10:01:37.632Z,11068.00
2019-04-04T10:02:37.622Z,11068.00
2019-04-04T10:03:37.610Z,10568.00
2019-04-04T10:04:37.663Z,10572.00
2019-04-04T10:05:37.605Z,10564.00
2019-04-04T10:06:37.606Z,10540.00
2019-04-04T10:07:37.567Z,10552.00
2019-04-04T10:08:38.947Z,10480.00
2019-04-04T10:09:37.595Z,10544.00
2019-04-04T10:10:37.535Z,10368.00
2019-04-04T10:11:37.966Z,10320.00
2019-04-04T10:12:37.512Z,10272.00
2019-04-04T10:13:37.507Z,10196.00
2019-04-04T10:14:37.508Z,10172.00
2019-04-04T10:15:37.516Z,10104.00
2019-04-04T10:16:48.883Z,10120.00
2019-04-04T10:17:44.945Z,10132.00
2019-04-04T10:18:37.448Z,10168.00
2019-04-04T10:19:37.444Z,10096.00
2019-04-04T10:20:37.478Z,10228.00
2019-04-04T10:21:37.474Z,10244.00
2019-04-04T10:22:37.421Z,10192.00
2019-04-04T10:23:37.396Z,10300.00
2019-04-04T10:24:37.382Z,10296.00
2019-04-04T10:25:37.368Z,10196.00
2019-04-04T10:26:37.356Z,10224.00
2019-04-04T10:27:37.361Z,10232.00
2019-04-04T10:28:37.348Z,10220.00
2019-04-04T10:29:37.353Z,10216.00
2019-04-04T10:30:37.312Z,10236.00
2019-04-04T10:31:37.425Z,10060.00
2019-04-04T10:32:37.790Z,10076.00
2019-04-04T10:33:37.354Z,10108.00
2019-04-04T10:34:37.268Z,10140.00
2019-04-04T10:35:37.270Z,10152.00
2019-04-04T10:36:37.247Z,10108.00
2019-04-04T10:37:37.303Z,10076.00
2019-04-04T10:38:37.236Z,10188.00
2019-04-04T10:39:37.222Z,10152.00
2019-04-04T10:40:38.019Z,10056.00
2019-04-04T10:41:37.208Z,10112.00
2019-04-04T10:42:45.061Z,10148.00
2019-04-04T10:43:37.404Z,10128.00
2019-04-04T10:44:37.366Z,10000.00
2019-04-04T10:45:37.149Z,10096.00
2019-04-04T10:46:37.135Z,10124.00
2019-04-04T10:47:37.123Z,10172.00
2019-04-04T10:48:37.109Z,10136.00
2019-04-04T10:49:37.152Z,10132.00
2019-04-04T10:50:37.091Z,10156.00
2019-04-04T10:51:37.092Z,10180.00
2019-04-04T10:52:37.071Z,10176.00
2019-04-04T10:53:37.078Z,10168.00
2019-04-04T10:54:37.049Z,10144.00
2019-04-04T10:55:37.060Z,10116.00
2019-04-04T10:56:37.027Z,10088.00
2019-04-04T10:57:37.063Z,10112.00
2019-04-04T10:58:37.021Z,10092.00
2019-04-04T10:59:36.991Z,10052.00
2019-04-04T11:00:36.989Z,10004.00
2019-04-04T11:01:36.974Z,10012.00
2019-04-04T11:02:36.986Z,9888.00
2019-04-04T11:03:37.003Z,9944.00
2019-04-04T11:04:36.941Z,9924.00
2019-04-04T11:05:36.944Z,10008.00
2019-04-04T11:06:36.922Z,9864.00
2019-04-04T11:07:36.904Z,9988.00
2019-04-04T11:08:36.897Z,9984.00
2019-04-04T11:09:42.137Z,9972.00
2019-04-04T11:10:37.891Z,9980.00
2019-04-04T11:11:36.863Z,9968.00
2019-04-04T11:12:36.863Z,9960.00
2019-04-04T11:13:49.560Z,9960.00
2019-04-04T11:14:36.828Z,9972.00
2019-04-04T11:15:36.811Z,9972.00
2019-04-04T11:16:36.813Z,9968.00
2019-04-04T11:17:36.797Z,9944.00
2019-04-04T11:18:36.786Z,9904.00
2019-04-04T11:19:36.795Z,9900.00
2019-04-04T11:20:36.763Z,9908.00
2019-04-04T11:21:36.762Z,9888.00
2019-04-04T11:22:36.771Z,9876.00
2019-04-04T11:23:36.730Z,9856.00
2019-04-04T11:24:36.719Z,9840.00
2019-04-04T11:25:36.707Z,9828.00
2019-04-04T11:26:36.703Z,9812.00
2019-04-04T11:27:36.687Z,9796.00
2019-04-04T11:28:36.673Z,9792.00
2019-04-04T11:29:36.685Z,9776.00
2019-04-04T11:30:36.647Z,9784.00
2019-04-04T11:31:36.644Z,9744.00
2019-04-04T11:32:36.681Z,9744.00
2019-04-04T11:33:36.616Z,9756.00
2019-04-04T11:34:36.610Z,9748.00
2019-04-04T11:35:36.608Z,9708.00
2019-04-04T11:36:36.579Z,9712.00
2019-04-04T11:37:36.569Z,9720.00
2019-04-04T11:38:36.571Z,9708.00
2019-04-04T11:39:36.550Z,9700.00
2019-04-04T11:40:36.534Z,9700.00
2019-04-04T11:41:36.533Z,9624.00
2019-04-04T11:42:36.609Z,9552.00
2019-04-04T11:43:36.513Z,9608.00
2019-04-04T11:44:48.105Z,9632.00
2019-04-04T11:45:36.480Z,9608.00
2019-04-04T11:46:36.471Z,9616.00
2019-04-04T11:47:36.654Z,9604.00
2019-04-04T11:48:36.469Z,9576.00
2019-04-04T11:49:36.439Z,9552.00
2019-04-04T11:50:36.522Z,9548.00
2019-04-04T11:51:36.420Z,9548.00
2019-04-04T11:52:36.408Z,9500.00
2019-04-04T11:53:36.434Z,9472.00
2019-04-04T11:54:36.433Z,9464.00
2019-04-04T11:55:36.379Z,9448.00
2019-04-04T11:56:36.359Z,9452.00
2019-04-04T11:57:36.484Z,9396.00
2019-04-04T11:58:36.341Z,9640.00
2019-04-04T11:59:36.370Z,9380.00
2019-04-04T12:00:36.325Z,9316.00
2019-04-04T12:01:36.308Z,9312.00
2019-04-04T12:02:36.297Z,9312.00
2019-04-04T12:03:36.281Z,9232.00
2019-04-04T12:04:36.270Z,9272.00
2019-04-04T12:05:36.659Z,9276.00
2019-04-04T12:06:36.249Z,9228.00
2019-04-04T12:07:38.348Z,9164.00
2019-04-04T12:08:36.231Z,9168.00